• Join FlightAware (Why Join?)
  • Login
  • US Flag 
12:51AM EDT


 

Airport Tracker/Info


-or-


 

Live Flight TrackerFlight Track Log ✈ GLR9643 ✈ 04-Jul-2013 ✈ CYEG - CYYC

Flight Track Log - Related Links

Times and Time Zones

All times are in EDT time to prevent confusion due to time zone crossing. See the GLR9643 flight status page for this flight to view local times or setup timezone preferences in your user account.

Time Position Orientation Groundspeed Altitude Reporting Facility
EDT Latitude Longitude Course Direction KTS MPH feet Rate Location/Type
06:18PM 53.2667 -113.6333 197° South 140 161 4,100  Level Edmonton Center
06:19PM 53.2333 -113.6833 222° Southwest 150 173 5,500 1,200 Climbing Edmonton Center
06:20PM 53.1833 -113.6667 169° South 160 184 6,500 1,140 Climbing Edmonton Center
06:21PM 53.1333 -113.6333 158° South 180 207 7,800 1,200 Climbing Edmonton Center
06:22PM 53.0833 -113.6500 191° South 180 207 9,000 1,200 Climbing Edmonton Center
06:23PM 53.0259 -113.8030 169° South  Level FlightAware Approximate
06:23PM 53.0333 -113.6500 180° South 190 219 10,200  Level Edmonton Center
06:24PM 52.9833 -113.6333 169° South 200 230 11,400 1,320 Climbing Edmonton Center
06:25PM 52.9167 -113.5833 156° South 200 230 12,900 1,200 Climbing Edmonton Center
06:26PM 52.8667 -113.5833 180° South 200 230 13,900 1,020 Climbing Edmonton Center
06:27PM 52.8000 -113.5667 171° South 210 242 15,000 1,080 Climbing Edmonton Center
06:28PM 52.7500 -113.5333 158° South 200 230 16,100 840 Climbing Edmonton Center
06:29PM 52.7167 -113.4833 138° Southeast 210 242 16,700 420 Climbing Edmonton Center
06:30PM 52.6333 -113.5000 187° South 210 242 17,000 120 Climbing Edmonton Center
06:31PM 52.5667 -113.5167 189° South 240 276 17,000  Level Edmonton Center
06:32PM 52.5000 -113.5000 171° South 250 288 17,000  Level Edmonton Center
06:33PM 52.4333 -113.5167 189° South 250 288 17,000  Level Edmonton Center
06:34PM 52.3667 -113.5333 189° South 250 288 17,100  Climbing Edmonton Center
06:35PM 52.3000 -113.5500 189° South 250 288 17,100  Level Edmonton Center
06:36PM 52.2333 -113.5500 180° South 250 288 17,100 -300 Level Edmonton Center
06:37PM 52.1667 -113.5667 189° South 250 288 16,500 -600 Descending Edmonton Center
06:38PM 52.0833 -113.5833 187° South 240 276 15,900 -660 Descending Edmonton Center
06:39PM 52.0167 -113.5667 171° South 240 276 15,200 -720 Descending Edmonton Center
06:40PM 51.9500 -113.5833 189° South 230 265 14,500 -600 Descending Edmonton Center
06:41PM 51.9000 -113.6000 192° South 230 265 14,100 -240 Descending Edmonton Center
06:42PM 51.8333 -113.6167 189° South 220 253 14,100 -60 Level Edmonton Center
06:43PM 51.7833 -113.6333 192° South 220 253 14,000 -660 Descending Edmonton Center
06:44PM 51.7167 -113.6500 189° South 230 265 12,800 -1,380 Descending Edmonton Center
06:45PM 51.6333 -113.6833 194° South 250 288 11,300 -1,140 Descending Edmonton Center
06:46PM 51.5833 -113.7333 212° Southwest 230 265 10,600 -900 Descending Edmonton Center
06:47PM 51.5333 -113.7667 203° Southwest 220 253 9,600 -1,080 Descending Edmonton Center
06:48PM 51.4667 -113.8500 218° Southwest 200 230 8,500 -1,080 Descending Edmonton Center
06:49PM 51.4333 -113.8833 212° Southwest 200 230 7,500 -1,020 Descending Edmonton Center
06:50PM 51.4167 -113.9667 252° West 190 219 6,500 -540 Descending Edmonton Center
06:51PM 51.3667 -114.0167 212° Southwest 190 219 6,500  Level Edmonton Center
06:52PM 51.3167 -114.0333 192° South 170 196 6,500  Level Edmonton Center
06:53PM 51.2667 -114.0500 192° South 170 196 6,500 -300 Level Edmonton Center
06:54PM 51.2167 -114.0333 168° South 160 184 5,900 -780 Descending Edmonton Center
06:55PM 51.1833 -114.0500 197° South 160 184 5,000 -840 Descending Edmonton Center
06:56PM 51.1333 -114.0500 180° South 140 161 4,300 -720 Descending Edmonton Center